createdAt,value
2022-12-03T00:01:48.454Z,101504.72
2022-12-03T00:04:15.329Z,101489.09
2022-12-03T00:06:42.165Z,101501.22
2022-12-03T00:09:09.039Z,101504.84
2022-12-03T00:11:35.918Z,101482.03
2022-12-03T00:14:02.775Z,101496.06
2022-12-03T00:16:29.823Z,101515.28
2022-12-03T00:18:56.670Z,101492.38
2022-12-03T00:21:24.758Z,101512.56
2022-12-03T00:23:51.931Z,101512.53
2022-12-03T00:26:18.712Z,101501.09
2022-12-03T00:28:45.605Z,101500.19
2022-12-03T00:31:12.447Z,101514.38
2022-12-03T00:33:39.435Z,101509.94
2022-12-03T00:36:06.763Z,101508.13
2022-12-03T00:38:33.547Z,101508.94
2022-12-03T00:41:00.319Z,101508.06
2022-12-03T00:43:27.163Z,101510.69
2022-12-03T00:45:53.953Z,101510.69
2022-12-03T00:48:20.794Z,101513.31
2022-12-03T00:50:47.655Z,101515.09
2022-12-03T00:53:14.449Z,101521.22
2022-12-03T00:55:41.300Z,101516.84
2022-12-03T00:58:11.154Z,101516.84
2022-12-03T01:00:38.063Z,101515.94
2022-12-03T01:03:04.980Z,101523.88
2022-12-03T01:05:31.992Z,101515.06
2022-12-03T01:07:59.085Z,101515.94
2022-12-03T01:10:25.995Z,101521.22
2022-12-03T01:12:52.839Z,101520.34
2022-12-03T01:15:19.712Z,101517.75
2022-12-03T01:17:46.653Z,101523.00
2022-12-03T01:20:13.631Z,101523.97
2022-12-03T01:22:40.503Z,101528.44
2022-12-03T01:25:08.284Z,101524.91
2022-12-03T01:27:35.115Z,101528.56
2022-12-03T01:30:02.040Z,101526.00
2022-12-03T01:32:28.814Z,101527.69
2022-12-03T01:34:56.480Z,101527.94
2022-12-03T01:37:25.327Z,101527.91
2022-12-03T01:39:52.878Z,101523.53
2022-12-03T01:42:26.460Z,101523.56
2022-12-03T01:44:55.578Z,101520.78
2022-12-03T01:47:26.634Z,101526.03
2022-12-03T01:49:56.784Z,101525.09
2022-12-03T01:52:27.499Z,101519.69
2022-12-03T01:54:56.695Z,101523.16
2022-12-03T01:57:27.918Z,101521.31
2022-12-03T01:59:56.431Z,101523.97
2022-12-03T02:02:28.923Z,101527.47
2022-12-03T02:04:56.635Z,101540.66
2022-12-03T02:07:32.271Z,101531.78
2022-12-03T02:10:01.905Z,101530.88
2022-12-03T02:12:34.907Z,101531.75
2022-12-03T02:15:02.128Z,101522.06
2022-12-03T02:17:29.623Z,101523.81
2022-12-03T02:19:56.848Z,101517.63
2022-12-03T02:22:53.030Z,101521.19
2022-12-03T02:25:21.686Z,101519.50
2022-12-03T02:27:49.045Z,101521.19
2022-12-03T02:30:19.707Z,101516.75
2022-12-03T02:32:47.386Z,101519.41
2022-12-03T02:35:16.965Z,101521.28
2022-12-03T02:37:45.629Z,101522.09
2022-12-03T02:40:17.384Z,101526.47
2022-12-03T02:42:45.276Z,101526.47
2022-12-03T02:45:14.986Z,101513.34
2022-12-03T02:47:46.378Z,101529.22
2022-12-03T02:50:15.448Z,101537.25
2022-12-03T02:52:44.296Z,101534.66
2022-12-03T02:55:11.252Z,101531.25
2022-12-03T02:57:38.836Z,101522.44
2022-12-03T03:00:06.967Z,101529.41
2022-12-03T03:02:34.716Z,101531.97
2022-12-03T03:05:01.625Z,101523.12
2022-12-03T03:07:28.708Z,101518.69
2022-12-03T03:09:55.661Z,101521.31
2022-12-03T03:12:22.518Z,101525.69
2022-12-03T03:14:49.381Z,101521.31
2022-12-03T03:17:16.256Z,101522.19
2022-12-03T03:19:43.213Z,101509.81
2022-12-03T03:22:10.961Z,101515.06
2022-12-03T03:24:38.014Z,101505.34
2022-12-03T03:27:05.359Z,101521.22
2022-12-03T03:29:33.579Z,101512.38
2022-12-03T03:32:01.846Z,101515.91
2022-12-03T03:34:29.280Z,101517.72
2022-12-03T03:36:56.323Z,101516.81
2022-12-03T03:39:23.207Z,101522.97
2022-12-03T03:41:50.014Z,101519.41
2022-12-03T03:44:16.854Z,101522.03
2022-12-03T03:46:43.818Z,101528.19
2022-12-03T03:49:10.721Z,101522.88
2022-12-03T03:51:37.794Z,101526.41
2022-12-03T03:54:05.198Z,101520.25
2022-12-03T03:56:32.923Z,101521.09
2022-12-03T03:59:00.015Z,101510.56
2022-12-03T04:01:27.287Z,101517.50
2022-12-03T04:03:54.894Z,101507.84
2022-12-03T04:06:21.763Z,101510.44
2022-12-03T04:08:48.776Z,101516.59
2022-12-03T04:11:34.029Z,101517.47
2022-12-03T04:14:00.825Z,101517.47
2022-12-03T04:16:27.752Z,101518.34
2022-12-03T04:18:54.710Z,101520.12
2022-12-03T04:21:42.068Z,101523.66
2022-12-03T04:24:10.540Z,101522.75
2022-12-03T04:26:56.159Z,101520.12
2022-12-03T04:29:23.500Z,101521.00
2022-12-03T04:32:09.333Z,101517.47
2022-12-03T04:34:55.111Z,101521.03
2022-12-03T04:37:22.259Z,101512.16
2022-12-03T04:39:49.307Z,101516.59
2022-12-03T04:42:16.194Z,101521.91
2022-12-03T04:44:43.218Z,101521.91
2022-12-03T04:47:12.336Z,101514.00
2022-12-03T04:49:41.722Z,101513.09
2022-12-03T04:52:09.640Z,101514.00
2022-12-03T04:54:37.188Z,101519.28
2022-12-03T04:57:04.647Z,101512.25
2022-12-03T04:59:32.020Z,101508.69
2022-12-03T05:01:59.131Z,101513.12
2022-12-03T05:04:26.433Z,101526.41
2022-12-03T05:06:53.339Z,101515.81
2022-12-03T05:09:20.233Z,101524.59
2022-12-03T05:11:47.022Z,101529.88
2022-12-03T05:14:13.850Z,101522.84
2022-12-03T05:16:40.716Z,101536.94
2022-12-03T05:19:09.069Z,101538.69
2022-12-03T05:21:36.141Z,101537.78
2022-12-03T05:24:03.307Z,101538.66
2022-12-03T05:26:30.164Z,101532.50
2022-12-03T05:28:57.107Z,101528.97
2022-12-03T05:31:24.000Z,101530.72
2022-12-03T05:33:51.067Z,101532.53
2022-12-03T05:36:17.872Z,101512.38
2022-12-03T05:38:44.688Z,101538.69
2022-12-03T05:41:30.402Z,101531.63
2022-12-03T05:43:57.420Z,101528.06
2022-12-03T05:46:24.231Z,101527.19
2022-12-03T05:48:51.173Z,101539.53
2022-12-03T05:51:18.006Z,101542.16
2022-12-03T05:53:44.919Z,101537.78
2022-12-03T05:56:11.766Z,101535.09
2022-12-03T05:58:38.547Z,101535.13
2022-12-03T06:01:05.461Z,101538.63
2022-12-03T06:03:32.760Z,101540.34
2022-12-03T06:05:59.726Z,101539.47
2022-12-03T06:08:26.559Z,101548.34
2022-12-03T06:10:53.379Z,101543.94
2022-12-03T06:13:20.239Z,101546.59
2022-12-03T06:15:47.130Z,101548.37
2022-12-03T06:18:14.053Z,101560.75
2022-12-03T06:20:41.099Z,101553.66
2022-12-03T06:23:07.946Z,101563.34
2022-12-03T06:25:34.901Z,101576.78
2022-12-03T06:28:01.717Z,101564.44
2022-12-03T06:30:28.596Z,101559.03
2022-12-03T06:32:55.359Z,101552.00
2022-12-03T06:35:22.196Z,101544.03
2022-12-03T06:37:49.528Z,101549.28
2022-12-03T06:40:16.891Z,101551.87
2022-12-03T06:42:43.773Z,101551.87
2022-12-03T06:45:11.637Z,101563.41
2022-12-03T06:47:38.552Z,101552.84
2022-12-03T06:50:07.095Z,101548.41
2022-12-03T06:52:33.903Z,101544.84
2022-12-03T06:55:00.690Z,101556.31
2022-12-03T06:57:27.519Z,101566.00
2022-12-03T06:59:54.598Z,101563.34
2022-12-03T07:02:21.707Z,101561.56
2022-12-03T07:04:48.534Z,101562.47
2022-12-03T07:07:15.291Z,101562.41
2022-12-03T07:09:42.147Z,101569.44
2022-12-03T07:12:09.185Z,101568.53
2022-12-03T07:14:35.962Z,101572.94
2022-12-03T07:17:02.900Z,101571.12
2022-12-03T07:19:32.842Z,101573.81
2022-12-03T07:22:00.482Z,101574.69
2022-12-03T07:24:27.682Z,101574.69
2022-12-03T07:26:54.452Z,101571.12
2022-12-03T07:29:21.465Z,101575.53
2022-12-03T07:31:48.383Z,101562.31
2022-12-03T07:34:17.104Z,101561.41
2022-12-03T07:36:44.004Z,101562.28
2022-12-03T07:39:11.099Z,101562.25
2022-12-03T07:41:40.514Z,101564.84
2022-12-03T07:44:12.543Z,101563.06
2022-12-03T07:46:44.687Z,101563.03
2022-12-03T07:49:13.285Z,101559.50
2022-12-03T07:51:40.563Z,101565.63
2022-12-03T07:54:07.652Z,101557.69
2022-12-03T07:56:34.623Z,101557.59
2022-12-03T07:59:03.105Z,101557.47
2022-12-03T08:01:30.109Z,101557.44
2022-12-03T08:03:59.267Z,101564.47
2022-12-03T08:06:26.169Z,101573.25
2022-12-03T08:08:53.755Z,101546.94
2022-12-03T08:11:20.606Z,101561.78
2022-12-03T08:13:47.964Z,101575.00
2022-12-03T08:16:18.144Z,101575.91
2022-12-03T08:18:46.365Z,101560.94
2022-12-03T08:21:15.890Z,101574.94
2022-12-03T08:23:42.989Z,101587.28
2022-12-03T08:26:24.707Z,101589.94
2022-12-03T08:28:52.924Z,101591.72
2022-12-03T08:31:27.937Z,101589.03
2022-12-03T08:34:11.025Z,101574.84
2022-12-03T08:36:38.028Z,101568.69
2022-12-03T08:39:29.478Z,101585.38
2022-12-03T08:42:38.920Z,101580.00
2022-12-03T08:45:40.169Z,101573.69
2022-12-03T08:48:12.971Z,101576.44
2022-12-03T08:50:42.395Z,101575.53
2022-12-03T08:53:18.161Z,101568.44
2022-12-03T08:55:51.598Z,101579.81
2022-12-03T08:58:22.254Z,101579.75
2022-12-03T09:00:56.995Z,101577.88
2022-12-03T09:03:25.053Z,101570.84
2022-12-03T09:05:52.460Z,101572.53
2022-12-03T09:08:20.112Z,101567.97
2022-12-03T09:10:47.129Z,101565.06
2022-12-03T09:13:15.300Z,101564.09
2022-12-03T09:15:42.102Z,101559.47
2022-12-03T09:18:09.002Z,101562.75
2022-12-03T09:20:35.998Z,101554.66
2022-12-03T09:23:02.921Z,101559.78
2022-12-03T09:25:29.751Z,101556.13
2022-12-03T09:27:56.744Z,101551.56
2022-12-03T09:30:23.654Z,101553.34
2022-12-03T09:32:50.733Z,101551.63
2022-12-03T09:35:17.844Z,101550.72
2022-12-03T09:37:44.842Z,101559.59
2022-12-03T09:40:12.576Z,101558.47
2022-12-03T09:42:40.289Z,101539.91
2022-12-03T09:45:12.417Z,101544.06
2022-12-03T09:47:40.662Z,101539.34
2022-12-03T09:50:10.675Z,101521.59
2022-12-03T09:52:37.638Z,101516.34
2022-12-03T09:55:12.471Z,101520.53
2022-12-03T09:57:39.784Z,101519.53
2022-12-03T10:00:18.929Z,101508.81
2022-12-03T10:02:47.306Z,101523.56
2022-12-03T10:05:14.963Z,101507.66
2022-12-03T10:07:42.624Z,101515.34
2022-12-03T10:10:21.660Z,101517.03
2022-12-03T10:12:50.132Z,101511.34
2022-12-03T10:15:18.819Z,101500.56
2022-12-03T10:17:51.425Z,101500.53
2022-12-03T10:20:20.977Z,101502.97
2022-12-03T10:22:48.870Z,101501.16
2022-12-03T10:25:18.824Z,101506.25
2022-12-03T10:28:03.859Z,101504.34
2022-12-03T10:30:30.980Z,101499.91
2022-12-03T10:32:59.318Z,101479.56
2022-12-03T10:35:36.991Z,101482.81
2022-12-03T10:38:05.781Z,101476.56
2022-12-03T10:40:34.804Z,101473.81
2022-12-03T10:43:20.141Z,101475.28
2022-12-03T10:45:48.800Z,101469.53
2022-12-03T10:48:30.434Z,101466.75
2022-12-03T10:51:02.698Z,101460.37
2022-12-03T10:53:32.149Z,101444.56
2022-12-03T10:56:01.947Z,101437.94
2022-12-03T10:58:31.588Z,101437.44
2022-12-03T11:01:05.759Z,101435.56
2022-12-03T11:03:36.553Z,101447.84
2022-12-03T11:06:03.833Z,101441.47
2022-12-03T11:08:34.956Z,101435.38
2022-12-03T11:11:08.478Z,101431.53
2022-12-03T11:13:37.957Z,101431.97
2022-12-03T11:16:08.253Z,101425.44
2022-12-03T11:18:37.875Z,101419.28
2022-12-03T11:21:14.064Z,101417.84
2022-12-03T11:23:46.935Z,101417.00
2022-12-03T11:26:37.015Z,101412.25
2022-12-03T11:29:05.063Z,101414.69
2022-12-03T11:31:47.832Z,101414.78
2022-12-03T11:34:21.098Z,101409.06
2022-12-03T11:37:09.804Z,101403.53
2022-12-03T11:39:52.664Z,101399.87
2022-12-03T11:42:25.988Z,101387.44
2022-12-03T11:45:10.977Z,101385.59
2022-12-03T11:47:46.215Z,101395.12
2022-12-03T11:50:28.350Z,101392.34
2022-12-03T11:53:00.687Z,101397.81
2022-12-03T11:55:32.045Z,101397.03
2022-12-03T11:58:01.662Z,101400.47
2022-12-03T12:00:29.076Z,101390.28
2022-12-03T12:02:57.959Z,101388.53
2022-12-03T12:05:33.478Z,101368.16
2022-12-03T12:08:01.738Z,101352.47
2022-12-03T12:10:49.174Z,101373.22
2022-12-03T12:13:30.914Z,101375.56
2022-12-03T12:15:59.014Z,101369.81
2022-12-03T12:18:42.580Z,101379.72
2022-12-03T12:21:43.683Z,101380.94
2022-12-03T12:24:40.480Z,101378.28
2022-12-03T12:27:09.208Z,101370.53
2022-12-03T12:29:37.606Z,101369.91
2022-12-03T12:32:13.663Z,101372.28
2022-12-03T12:34:42.891Z,101369.31
2022-12-03T12:37:23.565Z,101363.72
2022-12-03T12:39:53.493Z,101362.81
2022-12-03T12:42:50.513Z,101361.19
2022-12-03T12:45:19.244Z,101357.59
2022-12-03T12:48:12.090Z,101349.47
2022-12-03T12:50:44.484Z,101348.63
2022-12-03T12:53:11.204Z,101347.97
2022-12-03T12:55:39.435Z,101352.31
2022-12-03T12:58:12.385Z,101342.00
2022-12-03T13:00:40.217Z,101349.19
2022-12-03T13:03:08.468Z,101347.59
2022-12-03T13:05:38.913Z,101347.44
2022-12-03T13:08:32.997Z,101353.44
2022-12-03T13:11:01.630Z,101361.97
2022-12-03T13:13:31.118Z,101357.53
2022-12-03T13:16:17.180Z,101359.44
2022-12-03T13:18:50.156Z,101367.75
2022-12-03T13:21:35.700Z,101364.19
2022-12-03T13:24:02.858Z,101368.66
2022-12-03T13:26:39.518Z,101367.75
2022-12-03T13:29:15.102Z,101367.69
2022-12-03T13:31:52.896Z,101362.37
2022-12-03T13:34:22.794Z,101373.81
2022-12-03T13:36:57.169Z,101364.19
2022-12-03T13:39:38.248Z,101369.44
2022-12-03T13:42:26.783Z,101345.50
2022-12-03T13:44:53.926Z,101364.00
2022-12-03T13:47:22.072Z,101363.91
2022-12-03T13:49:57.550Z,101365.72
2022-12-03T13:52:25.939Z,101371.94
2022-12-03T13:54:54.832Z,101373.78
2022-12-03T13:57:22.828Z,101379.16
2022-12-03T13:59:49.772Z,101374.75
2022-12-03T14:02:17.161Z,101374.84
2022-12-03T14:04:44.872Z,101378.41
2022-12-03T14:07:12.446Z,101378.56
2022-12-03T14:09:39.309Z,101384.00
2022-12-03T14:12:25.546Z,101384.94
2022-12-03T14:14:53.406Z,101385.78
2022-12-03T14:17:21.421Z,101391.97
2022-12-03T14:19:49.942Z,101392.94
2022-12-03T14:22:20.152Z,101388.50
2022-12-03T14:24:47.993Z,101394.75
2022-12-03T14:27:14.938Z,101393.91
2022-12-03T14:29:42.698Z,101399.28
2022-12-03T14:32:09.578Z,101397.53
2022-12-03T14:34:42.469Z,101405.59
2022-12-03T14:37:15.130Z,101404.75
2022-12-03T14:39:43.346Z,101405.69
2022-12-03T14:42:13.320Z,101411.97
2022-12-03T14:44:42.427Z,101404.06
2022-12-03T14:47:10.493Z,101409.47
2022-12-03T14:49:38.427Z,101416.69
2022-12-03T14:52:08.628Z,101410.53
2022-12-03T14:54:42.780Z,101411.44
2022-12-03T14:57:13.986Z,101410.66
2022-12-03T14:59:42.074Z,101406.28
2022-12-03T15:02:10.385Z,101399.28
2022-12-03T15:04:39.648Z,101415.22
2022-12-03T15:07:06.477Z,101415.25
2022-12-03T15:09:33.631Z,101419.72
2022-12-03T15:12:00.488Z,101420.66
2022-12-03T15:14:27.811Z,101423.31
2022-12-03T15:16:55.143Z,101416.25
2022-12-03T15:19:22.401Z,101420.66
2022-12-03T15:21:49.343Z,101424.19
2022-12-03T15:24:17.080Z,101421.50
2022-12-03T15:26:44.175Z,101427.78
2022-12-03T15:29:11.498Z,101419.87
2022-12-03T15:31:38.808Z,101424.47
2022-12-03T15:34:05.967Z,101424.53
2022-12-03T15:36:32.868Z,101421.06
2022-12-03T15:38:59.961Z,101414.81
2022-12-03T15:41:30.239Z,101413.09
2022-12-03T15:44:03.991Z,101413.97
2022-12-03T15:46:34.276Z,101421.94
2022-12-03T15:49:01.211Z,101418.50
2022-12-03T15:51:28.265Z,101425.62
2022-12-03T15:53:55.020Z,101426.56
2022-12-03T15:56:21.871Z,101433.81
2022-12-03T15:58:48.804Z,101428.66
2022-12-03T16:01:18.301Z,101426.13
2022-12-03T16:03:45.577Z,101424.44
2022-12-03T16:06:12.830Z,101431.69
2022-12-03T16:08:39.843Z,101424.75
2022-12-03T16:11:07.353Z,101423.19
2022-12-03T16:13:34.333Z,101421.56
2022-12-03T16:16:01.307Z,101426.97
2022-12-03T16:18:28.211Z,101427.97
2022-12-03T16:20:56.132Z,101424.53
2022-12-03T16:23:30.446Z,101431.81
2022-12-03T16:25:57.249Z,101437.22
2022-12-03T16:28:24.135Z,101437.34
2022-12-03T16:30:51.440Z,101439.22
2022-12-03T16:33:22.551Z,101431.34
2022-12-03T16:35:52.790Z,101435.91
2022-12-03T16:38:19.820Z,101427.16
2022-12-03T16:40:47.251Z,101436.09
2022-12-03T16:43:14.096Z,101430.91
2022-12-03T16:45:56.652Z,101431.91
2022-12-03T16:48:23.839Z,101437.34
2022-12-03T16:50:55.279Z,101440.09
2022-12-03T16:53:22.343Z,101435.78
2022-12-03T16:55:49.143Z,101440.25
2022-12-03T16:58:18.734Z,101435.91
2022-12-03T17:00:45.577Z,101434.13
2022-12-03T17:03:12.439Z,101436.84
2022-12-03T17:05:39.270Z,101441.31
2022-12-03T17:08:06.394Z,101447.59
2022-12-03T17:10:33.348Z,101451.19
2022-12-03T17:13:09.326Z,101445.94
2022-12-03T17:15:37.164Z,101459.34
2022-12-03T17:18:04.257Z,101456.69
2022-12-03T17:20:31.830Z,101450.59
2022-12-03T17:22:59.504Z,101442.81
2022-12-03T17:25:26.840Z,101444.69
2022-12-03T17:27:53.747Z,101451.75
2022-12-03T17:30:21.114Z,101443.06
2022-12-03T17:32:50.316Z,101455.34
2022-12-03T17:35:17.949Z,101450.94
2022-12-03T17:37:45.192Z,101443.81
2022-12-03T17:40:13.557Z,101448.13
2022-12-03T17:42:40.592Z,101445.53
2022-12-03T17:45:08.040Z,101443.84
2022-12-03T17:47:34.879Z,101443.84
2022-12-03T17:50:01.978Z,101436.09
2022-12-03T17:52:29.051Z,101443.13
2022-12-03T17:55:10.963Z,101444.16
2022-12-03T17:57:40.021Z,101453.97
2022-12-03T18:00:07.746Z,101450.59
2022-12-03T18:02:34.566Z,101447.06
2022-12-03T18:05:01.558Z,101442.75
2022-12-03T18:07:28.474Z,101452.53
2022-12-03T18:09:55.761Z,101447.47
2022-12-03T18:12:22.816Z,101443.94
2022-12-03T18:14:49.612Z,101448.47
2022-12-03T18:17:16.504Z,101447.69
2022-12-03T18:19:43.752Z,101449.50
2022-12-03T18:22:11.257Z,101438.16
2022-12-03T18:24:38.233Z,101446.97
2022-12-03T18:27:05.167Z,101445.19
2022-12-03T18:29:32.233Z,101447.91
2022-12-03T18:32:00.571Z,101450.53
2022-12-03T18:34:27.703Z,101438.13
2022-12-03T18:36:54.538Z,101444.31
2022-12-03T18:39:31.669Z,101440.87
2022-12-03T18:41:58.745Z,101433.78
2022-12-03T18:44:25.992Z,101446.22
2022-12-03T18:46:54.158Z,101438.31
2022-12-03T18:49:22.096Z,101439.22
2022-12-03T18:51:52.115Z,101437.47
2022-12-03T18:54:23.044Z,101436.63
2022-12-03T18:56:49.867Z,101427.97
2022-12-03T18:59:16.971Z,101433.22
2022-12-03T19:01:44.106Z,101433.28
2022-12-03T19:04:11.167Z,101436.87
2022-12-03T19:06:38.212Z,101443.09
2022-12-03T19:09:05.271Z,101440.50
2022-12-03T19:11:34.026Z,101438.75
2022-12-03T19:14:02.955Z,101436.16
2022-12-03T19:16:30.342Z,101435.34
2022-12-03T19:18:57.829Z,101439.78
2022-12-03T19:21:28.373Z,101435.81
2022-12-03T19:24:23.137Z,101442.22
2022-12-03T19:26:46.384Z,101442.16
2022-12-03T19:29:13.656Z,101448.84
2022-12-03T19:31:40.732Z,101451.47
2022-12-03T19:34:07.932Z,101451.81
2022-12-03T19:36:35.269Z,101458.62
2022-12-03T19:39:02.621Z,101462.09
2022-12-03T19:41:31.426Z,101460.25
2022-12-03T19:43:58.739Z,101463.81
2022-12-03T19:46:31.452Z,101463.94
2022-12-03T19:48:59.398Z,101467.34
2022-12-03T19:51:35.996Z,101469.06
2022-12-03T19:54:08.100Z,101465.53
2022-12-03T19:56:35.927Z,101467.28
2022-12-03T19:59:05.145Z,101466.38
2022-12-03T20:01:35.473Z,101469.00
2022-12-03T20:04:04.482Z,101465.53
2022-12-03T20:06:34.903Z,101474.34
2022-12-03T20:09:06.555Z,101476.97
2022-12-03T20:11:35.007Z,101470.00
2022-12-03T20:14:05.741Z,101479.00
2022-12-03T20:16:33.861Z,101475.41
2022-12-03T20:19:04.096Z,101482.41
2022-12-03T20:21:34.194Z,101481.50
2022-12-03T20:24:02.225Z,101477.19
2022-12-03T20:26:29.960Z,101477.19
2022-12-03T20:29:01.528Z,101466.63
2022-12-03T20:31:31.649Z,101471.00
2022-12-03T20:34:01.990Z,101477.16
2022-12-03T20:36:30.507Z,101471.00
2022-12-03T20:39:02.663Z,101476.34
2022-12-03T20:41:30.850Z,101485.13
2022-12-03T20:43:58.227Z,101479.00
2022-12-03T20:46:27.754Z,101472.81
2022-12-03T20:48:56.045Z,101475.47
2022-12-03T20:51:27.614Z,101473.69
2022-12-03T20:53:54.622Z,101478.06
2022-12-03T20:56:26.088Z,101476.34
2022-12-03T20:58:54.045Z,101470.22
2022-12-03T21:01:24.864Z,101478.19
2022-12-03T21:03:53.739Z,101481.72
2022-12-03T21:06:22.245Z,101479.97
2022-12-03T21:08:50.156Z,101480.84
2022-12-03T21:11:20.283Z,101482.66
2022-12-03T21:13:48.353Z,101480.97
2022-12-03T21:16:21.089Z,101483.53
2022-12-03T21:19:01.193Z,101486.28
2022-12-03T21:21:29.284Z,101472.12
2022-12-03T21:23:57.406Z,101472.19
2022-12-03T21:26:24.624Z,101471.25
2022-12-03T21:28:53.443Z,101465.97
2022-12-03T21:31:22.489Z,101472.06
2022-12-03T21:33:49.448Z,101467.66
2022-12-03T21:36:17.556Z,101463.25
2022-12-03T21:38:45.102Z,101465.03
2022-12-03T21:41:12.471Z,101459.78
2022-12-03T21:43:39.544Z,101463.22
2022-12-03T21:47:12.967Z,101464.09
2022-12-03T21:49:00.115Z,101463.31
2022-12-03T21:51:26.972Z,101464.13
2022-12-03T21:53:54.034Z,101466.81
2022-12-03T21:56:20.917Z,101472.06
2022-12-03T21:58:47.850Z,101460.66
2022-12-03T22:01:19.162Z,101466.84
2022-12-03T22:03:46.512Z,101458.97
2022-12-03T22:06:13.898Z,101472.12
2022-12-03T22:08:41.311Z,101458.88
2022-12-03T22:11:20.303Z,101462.59
2022-12-03T22:13:47.337Z,101455.53
2022-12-03T22:16:16.868Z,101453.78
2022-12-03T22:18:44.269Z,101461.75
2022-12-03T22:21:17.796Z,101456.38
2022-12-03T22:23:45.368Z,101451.13
2022-12-03T22:26:17.454Z,101445.19
2022-12-03T22:28:49.168Z,101447.75
2022-12-03T22:31:17.474Z,101452.09
2022-12-03T22:33:48.169Z,101448.50
2022-12-03T22:36:20.593Z,101440.59
2022-12-03T22:38:49.375Z,101455.56
2022-12-03T22:41:17.814Z,101442.34
2022-12-03T22:43:46.141Z,101441.47
2022-12-03T22:46:13.548Z,101444.03
2022-12-03T22:48:41.841Z,101434.34
2022-12-03T22:51:16.670Z,101429.91
2022-12-03T22:53:43.648Z,101429.87
2022-12-03T22:56:10.726Z,101433.37
2022-12-03T22:58:38.827Z,101437.72
2022-12-03T23:01:06.436Z,101426.25
2022-12-03T23:03:33.406Z,101422.69
2022-12-03T23:06:00.976Z,101429.69
2022-12-03T23:08:28.224Z,101432.31
2022-12-03T23:10:55.394Z,101416.41
2022-12-03T23:13:22.333Z,101422.56
2022-12-03T23:15:52.595Z,101422.56
2022-12-03T23:18:19.911Z,101420.78
2022-12-03T23:20:50.154Z,101419.84
2022-12-03T23:23:18.217Z,101420.75
2022-12-03T23:25:55.588Z,101412.81
2022-12-03T23:28:22.624Z,101415.41
2022-12-03T23:30:49.493Z,101412.75
2022-12-03T23:33:16.587Z,101404.75
2022-12-03T23:35:43.443Z,101402.09
2022-12-03T23:38:10.716Z,101406.41
2022-12-03T23:40:37.894Z,101401.97
2022-12-03T23:43:04.662Z,101398.44
2022-12-03T23:45:33.074Z,101405.44
2022-12-03T23:48:00.199Z,101409.28
2022-12-03T23:50:27.981Z,101403.00
2022-12-03T23:52:55.391Z,101395.87
2022-12-03T23:55:22.254Z,101388.81
2022-12-03T23:57:49.465Z,101395.81
